createdAt,value
2023-02-20T00:01:21.872Z,369
2023-02-20T00:03:20.861Z,368
2023-02-20T00:04:21.436Z,357
2023-02-20T00:05:21.148Z,370
2023-02-20T00:06:21.020Z,363
2023-02-20T00:07:20.925Z,361
2023-02-20T00:08:20.429Z,369
2023-02-20T00:09:20.713Z,356
2023-02-20T00:10:21.095Z,347
2023-02-20T00:11:21.259Z,343
2023-02-20T00:12:20.587Z,359
2023-02-20T00:13:20.776Z,366
2023-02-20T00:14:20.889Z,363
2023-02-20T00:15:20.883Z,365
2023-02-20T00:16:21.141Z,366
2023-02-20T00:17:20.947Z,359
2023-02-20T00:18:20.602Z,368
2023-02-20T00:19:20.668Z,369
2023-02-20T00:20:20.896Z,367
2023-02-20T00:21:20.557Z,374
2023-02-20T00:22:21.102Z,381
2023-02-20T00:23:20.693Z,377
2023-02-20T00:24:20.354Z,366
2023-02-20T00:25:21.678Z,360
2023-02-20T00:26:20.958Z,361
2023-02-20T00:27:21.449Z,356
2023-02-20T00:28:21.038Z,351
2023-02-20T00:29:21.410Z,357
2023-02-20T00:30:21.435Z,361
2023-02-20T00:31:21.277Z,370
2023-02-20T00:32:20.908Z,366
2023-02-20T00:33:20.954Z,368
2023-02-20T00:34:21.131Z,369
2023-02-20T00:35:21.520Z,371
2023-02-20T00:36:20.887Z,368
2023-02-20T00:37:20.589Z,373
2023-02-20T00:38:21.092Z,379
2023-02-20T00:39:20.487Z,377
2023-02-20T00:41:20.975Z,373
2023-02-20T00:42:21.017Z,372
2023-02-20T00:43:20.748Z,370
2023-02-20T00:45:20.992Z,367
2023-02-20T00:46:20.921Z,373
2023-02-20T00:47:20.622Z,365
2023-02-20T00:48:21.053Z,371
2023-02-20T00:49:21.080Z,374
2023-02-20T00:50:21.139Z,369
2023-02-20T00:51:21.081Z,367
2023-02-20T00:52:20.862Z,372
2023-02-20T00:53:20.626Z,376
2023-02-20T00:54:20.600Z,377
2023-02-20T00:55:21.726Z,363
2023-02-20T00:57:21.487Z,366
2023-02-20T00:58:21.560Z,378
2023-02-20T00:59:20.781Z,373
2023-02-20T01:00:22.300Z,370
2023-02-20T01:01:24.368Z,366
2023-02-20T01:02:21.221Z,361
2023-02-20T01:03:21.247Z,365
2023-02-20T01:04:20.969Z,362
2023-02-20T01:06:21.257Z,363
2023-02-20T01:07:21.154Z,375
2023-02-20T01:08:20.640Z,364
2023-02-20T01:09:21.407Z,374
2023-02-20T01:10:21.437Z,371
2023-02-20T01:11:20.709Z,370
2023-02-20T01:12:20.981Z,373
2023-02-20T01:13:20.402Z,372
2023-02-20T01:14:21.127Z,365
2023-02-20T01:15:21.491Z,362
2023-02-20T01:16:21.488Z,367
2023-02-20T01:17:20.443Z,359
2023-02-20T01:18:20.931Z,363
2023-02-20T01:19:20.820Z,368
2023-02-20T01:20:20.607Z,375
2023-02-20T01:21:21.469Z,369
2023-02-20T01:22:21.189Z,370
2023-02-20T01:23:20.344Z,374
2023-02-20T01:24:21.291Z,366
2023-02-20T01:25:21.187Z,362
2023-02-20T01:26:20.782Z,359
2023-02-20T01:27:20.213Z,360
2023-02-20T01:28:20.843Z,365
2023-02-20T01:29:20.562Z,360
2023-02-20T01:30:21.490Z,367
2023-02-20T01:31:20.314Z,373
2023-02-20T01:32:21.412Z,362
2023-02-20T01:33:20.981Z,378
2023-02-20T01:35:21.175Z,381
2023-02-20T01:36:21.298Z,370
2023-02-20T01:37:20.712Z,363
2023-02-20T01:38:21.064Z,361
2023-02-20T01:39:20.568Z,366
2023-02-20T01:40:20.992Z,360
2023-02-20T01:41:20.110Z,361
2023-02-20T01:42:20.773Z,370
2023-02-20T01:44:20.432Z,367
2023-02-20T01:45:21.370Z,359
2023-02-20T01:46:20.941Z,368
2023-02-20T01:47:19.964Z,363
2023-02-20T01:48:20.178Z,367
2023-02-20T01:49:20.812Z,371
2023-02-20T01:50:21.157Z,359
2023-02-20T01:51:20.609Z,361
2023-02-20T01:52:20.084Z,364
2023-02-20T01:53:20.223Z,369
2023-02-20T01:54:20.332Z,371
2023-02-20T01:55:20.890Z,360
2023-02-20T01:56:20.435Z,367
2023-02-20T01:58:20.913Z,368
2023-02-20T02:00:22.231Z,361
2023-02-20T02:01:21.150Z,357
2023-02-20T02:02:21.110Z,358
2023-02-20T02:05:23.476Z,368
2023-02-20T02:05:23.568Z,359
2023-02-20T02:06:21.543Z,365
2023-02-20T02:08:20.833Z,369
2023-02-20T02:09:20.592Z,367
2023-02-20T02:10:21.012Z,357
2023-02-20T02:11:20.667Z,366
2023-02-20T02:12:20.985Z,367
2023-02-20T02:13:21.193Z,364
2023-02-20T02:14:20.979Z,360
2023-02-20T02:15:20.896Z,361
2023-02-20T02:16:20.714Z,367
2023-02-20T02:17:21.041Z,360
2023-02-20T02:18:20.754Z,361
2023-02-20T02:19:20.213Z,360
2023-02-20T02:20:20.939Z,356
2023-02-20T02:21:20.638Z,357
2023-02-20T02:22:20.885Z,363
2023-02-20T02:23:20.548Z,368
2023-02-20T02:25:21.288Z,363
2023-02-20T02:26:21.172Z,378
2023-02-20T02:27:20.596Z,382
2023-02-20T02:28:21.099Z,373
2023-02-20T02:30:21.922Z,370
2023-02-20T02:32:20.395Z,367
2023-02-20T02:33:21.442Z,361
2023-02-20T02:34:21.098Z,358
2023-02-20T02:35:21.610Z,361
2023-02-20T02:36:20.633Z,368
2023-02-20T02:37:20.631Z,375
2023-02-20T02:38:20.830Z,373
2023-02-20T02:39:20.619Z,370
2023-02-20T02:40:21.300Z,371
2023-02-20T02:42:20.892Z,382
2023-02-20T02:43:20.351Z,368
2023-02-20T02:44:20.970Z,378
2023-02-20T02:46:20.929Z,374
2023-02-20T02:47:20.275Z,367
2023-02-20T02:49:20.473Z,369
2023-02-20T02:50:20.959Z,371
2023-02-20T02:51:20.646Z,378
2023-02-20T02:52:20.529Z,384
2023-02-20T02:53:20.735Z,380
2023-02-20T02:54:20.554Z,374
2023-02-20T02:55:21.276Z,375
2023-02-20T02:56:20.868Z,365
2023-02-20T02:57:20.810Z,374
2023-02-20T02:58:21.278Z,378
2023-02-20T02:59:21.133Z,372
2023-02-20T03:00:22.656Z,359
2023-02-20T03:01:21.689Z,365
2023-02-20T03:02:20.454Z,379
2023-02-20T03:03:21.205Z,383
2023-02-20T03:04:21.395Z,375
2023-02-20T03:05:20.900Z,381
2023-02-20T03:06:21.412Z,371
2023-02-20T03:07:20.405Z,379
2023-02-20T03:08:21.166Z,390
2023-02-20T03:09:20.907Z,399
2023-02-20T03:10:20.937Z,403
2023-02-20T03:11:20.012Z,412
2023-02-20T03:12:21.290Z,401
2023-02-20T03:13:20.860Z,396
2023-02-20T03:14:20.808Z,386
2023-02-20T03:15:21.163Z,382
2023-02-20T03:16:20.695Z,378
2023-02-20T03:17:20.553Z,365
2023-02-20T03:18:21.063Z,361
2023-02-20T03:19:21.190Z,373
2023-02-20T03:20:21.239Z,374
2023-02-20T03:21:20.767Z,376
2023-02-20T03:22:20.406Z,381
2023-02-20T03:23:20.629Z,370
2023-02-20T03:24:20.568Z,353
2023-02-20T03:25:20.631Z,359
2023-02-20T03:26:21.009Z,369
2023-02-20T03:27:20.371Z,372
2023-02-20T03:28:21.090Z,375
2023-02-20T03:29:21.073Z,385
2023-02-20T03:30:21.030Z,393
2023-02-20T03:31:21.101Z,388
2023-02-20T03:32:20.970Z,372
2023-02-20T03:33:21.346Z,371
2023-02-20T03:34:21.348Z,373
2023-02-20T03:35:20.839Z,371
2023-02-20T03:36:20.093Z,373
2023-02-20T03:37:20.755Z,377
2023-02-20T03:39:21.290Z,371
2023-02-20T03:40:21.463Z,367
2023-02-20T03:41:21.017Z,361
2023-02-20T03:42:20.754Z,370
2023-02-20T03:43:21.196Z,374
2023-02-20T03:44:20.817Z,380
2023-02-20T03:45:21.518Z,370
2023-02-20T03:46:20.512Z,363
2023-02-20T03:47:21.388Z,358
2023-02-20T03:48:21.308Z,360
2023-02-20T03:49:20.712Z,371
2023-02-20T03:50:20.045Z,369
2023-02-20T03:51:21.449Z,376
2023-02-20T03:52:21.191Z,372
2023-02-20T03:53:20.612Z,376
2023-02-20T03:54:20.196Z,375
2023-02-20T03:55:21.105Z,377
2023-02-20T03:56:20.250Z,365
2023-02-20T03:57:21.490Z,354
2023-02-20T03:58:20.901Z,361
2023-02-20T03:59:21.129Z,366
2023-02-20T04:00:22.412Z,363
2023-02-20T04:02:21.353Z,372
2023-02-20T04:03:21.698Z,362
2023-02-20T04:04:21.198Z,367
2023-02-20T04:05:22.360Z,368
2023-02-20T04:06:21.074Z,359
2023-02-20T04:07:20.867Z,356
2023-02-20T04:08:20.771Z,363
2023-02-20T04:09:21.209Z,364
2023-02-20T04:10:21.547Z,352
2023-02-20T04:11:21.353Z,361
2023-02-20T04:12:21.774Z,360
2023-02-20T04:13:21.446Z,370
2023-02-20T04:14:21.361Z,365
2023-02-20T04:15:21.494Z,361
2023-02-20T04:16:21.005Z,357
2023-02-20T04:17:21.348Z,358
2023-02-20T04:18:21.215Z,357
2023-02-20T04:19:20.943Z,352
2023-02-20T04:20:21.311Z,366
2023-02-20T04:21:21.151Z,372
2023-02-20T04:22:21.393Z,374
2023-02-20T04:23:20.568Z,382
2023-02-20T04:24:21.361Z,380
2023-02-20T04:25:21.623Z,376
2023-02-20T04:26:21.578Z,375
2023-02-20T04:27:21.054Z,368
2023-02-20T04:28:20.036Z,369
2023-02-20T04:29:20.969Z,368
2023-02-20T04:31:21.621Z,369
2023-02-20T04:32:20.508Z,371
2023-02-20T04:33:20.977Z,365
2023-02-20T04:34:21.089Z,369
2023-02-20T04:35:20.940Z,368
2023-02-20T04:36:21.101Z,362
2023-02-20T04:38:21.547Z,364
2023-02-20T04:39:20.480Z,368
2023-02-20T04:40:20.990Z,361
2023-02-20T04:42:20.897Z,362
2023-02-20T04:43:20.499Z,349
2023-02-20T04:44:21.358Z,355
2023-02-20T04:45:21.861Z,363
2023-02-20T04:46:21.567Z,362
2023-02-20T04:48:21.330Z,365
2023-02-20T04:49:21.054Z,371
2023-02-20T04:50:21.634Z,374
2023-02-20T04:51:21.543Z,369
2023-02-20T04:52:20.497Z,368
2023-02-20T04:53:20.341Z,371
2023-02-20T04:54:20.806Z,369
2023-02-20T04:55:21.172Z,367
2023-02-20T04:57:21.023Z,360
2023-02-20T04:58:21.088Z,355
2023-02-20T05:01:21.430Z,357
2023-02-20T05:02:21.079Z,350
2023-02-20T05:03:20.986Z,355
2023-02-20T05:04:20.931Z,354
2023-02-20T05:05:21.204Z,365
2023-02-20T05:07:21.463Z,369
2023-02-20T05:08:21.655Z,364
2023-02-20T05:09:20.648Z,362
2023-02-20T05:10:21.170Z,364
2023-02-20T05:11:21.689Z,367
2023-02-20T05:12:20.920Z,374
2023-02-20T05:13:21.476Z,369
2023-02-20T05:14:20.804Z,358
2023-02-20T05:15:21.329Z,363
2023-02-20T05:16:21.479Z,359
2023-02-20T05:17:21.177Z,358
2023-02-20T05:18:20.804Z,367
2023-02-20T05:19:20.988Z,374
2023-02-20T05:20:22.072Z,373
2023-02-20T05:21:21.562Z,377
2023-02-20T05:22:22.762Z,373
2023-02-20T05:23:21.635Z,377
2023-02-20T05:24:21.033Z,371
2023-02-20T05:25:21.610Z,372
2023-02-20T05:26:21.332Z,371
2023-02-20T05:27:21.191Z,373
2023-02-20T05:28:20.744Z,372
2023-02-20T05:30:21.619Z,372
2023-02-20T05:32:21.470Z,369
2023-02-20T05:33:20.992Z,372
2023-02-20T05:34:21.067Z,358
2023-02-20T05:35:20.660Z,359
2023-02-20T05:36:20.594Z,368
2023-02-20T05:37:20.515Z,371
2023-02-20T05:38:21.671Z,375
2023-02-20T05:39:20.974Z,363
2023-02-20T05:40:21.123Z,355
2023-02-20T05:41:20.627Z,362
2023-02-20T05:42:21.417Z,370
2023-02-20T05:43:21.498Z,374
2023-02-20T05:44:20.769Z,378
2023-02-20T05:45:21.295Z,393
2023-02-20T05:46:21.526Z,385
2023-02-20T05:47:21.850Z,378
2023-02-20T05:48:20.858Z,374
2023-02-20T05:50:21.252Z,383
2023-02-20T05:51:22.020Z,390
2023-02-20T05:52:20.828Z,389
2023-02-20T05:53:21.390Z,374
2023-02-20T05:54:20.705Z,382
2023-02-20T05:55:21.772Z,376
2023-02-20T05:56:20.635Z,378
2023-02-20T05:57:21.502Z,381
2023-02-20T05:58:21.155Z,379
2023-02-20T05:59:20.895Z,368
2023-02-20T06:00:23.128Z,373
2023-02-20T06:01:21.889Z,380
2023-02-20T06:02:40.282Z,370
2023-02-20T06:03:21.227Z,366
2023-02-20T06:04:21.523Z,367
2023-02-20T06:05:20.998Z,366
2023-02-20T06:06:20.827Z,364
2023-02-20T06:07:20.814Z,366
2023-02-20T06:08:21.912Z,365
2023-02-20T06:09:20.731Z,350
2023-02-20T06:10:21.214Z,349
2023-02-20T06:11:20.958Z,357
2023-02-20T06:12:21.541Z,362
2023-02-20T06:13:21.249Z,360
2023-02-20T06:15:21.646Z,371
2023-02-20T06:16:22.346Z,372
2023-02-20T06:17:21.630Z,361
2023-02-20T06:18:20.944Z,358
2023-02-20T06:19:21.152Z,356
2023-02-20T06:21:21.634Z,352
2023-02-20T06:23:21.168Z,365
2023-02-20T06:24:20.731Z,363
2023-02-20T06:25:21.095Z,362
2023-02-20T06:26:21.151Z,365
2023-02-20T06:27:21.456Z,367
2023-02-20T06:28:21.025Z,355
2023-02-20T06:29:20.870Z,353
2023-02-20T06:30:21.262Z,359
2023-02-20T06:31:21.731Z,356
2023-02-20T06:32:20.737Z,359
2023-02-20T06:33:21.281Z,360
2023-02-20T06:34:21.081Z,362
2023-02-20T06:35:21.658Z,363
2023-02-20T06:36:20.637Z,368
2023-02-20T06:37:20.664Z,357
2023-02-20T06:38:21.232Z,354
2023-02-20T06:39:21.603Z,358
2023-02-20T06:40:20.538Z,365
2023-02-20T06:41:21.037Z,361
2023-02-20T06:42:21.274Z,362
2023-02-20T06:43:21.300Z,358
2023-02-20T06:44:21.192Z,347
2023-02-20T06:45:21.425Z,354
2023-02-20T06:46:21.616Z,357
2023-02-20T06:47:20.843Z,362
2023-02-20T06:49:21.184Z,361
2023-02-20T06:50:21.610Z,365
2023-02-20T06:51:20.571Z,357
2023-02-20T06:53:20.182Z,362
2023-02-20T06:54:21.231Z,367
2023-02-20T06:55:21.107Z,359
2023-02-20T06:56:21.780Z,357
2023-02-20T06:57:21.056Z,356
2023-02-20T06:58:21.839Z,364
2023-02-20T06:59:21.358Z,370
2023-02-20T07:00:22.613Z,367
2023-02-20T07:01:22.258Z,363
2023-02-20T07:02:20.717Z,368
2023-02-20T07:03:21.479Z,365
2023-02-20T07:04:21.030Z,363
2023-02-20T07:05:21.861Z,355
2023-02-20T07:06:22.703Z,358
2023-02-20T07:07:21.847Z,356
2023-02-20T07:08:21.986Z,355
2023-02-20T07:09:21.274Z,353
2023-02-20T07:10:21.913Z,351
2023-02-20T07:11:20.678Z,348
2023-02-20T07:12:20.834Z,345
2023-02-20T07:13:20.786Z,349
2023-02-20T07:15:21.307Z,352
2023-02-20T07:16:21.287Z,354
2023-02-20T07:18:21.203Z,345
2023-02-20T07:19:21.109Z,353
2023-02-20T07:20:21.971Z,365
2023-02-20T07:21:21.444Z,364
2023-02-20T07:22:21.206Z,364
2023-02-20T07:23:21.497Z,349
2023-02-20T07:24:20.609Z,351
2023-02-20T07:25:22.371Z,357
2023-02-20T07:26:21.379Z,361
2023-02-20T07:27:21.506Z,369
2023-02-20T07:28:21.179Z,363
2023-02-20T07:29:21.876Z,356
2023-02-20T07:30:21.078Z,355
2023-02-20T07:31:21.979Z,364
2023-02-20T07:32:22.312Z,357
2023-02-20T07:34:20.947Z,370
2023-02-20T07:35:22.094Z,357
2023-02-20T07:36:22.390Z,359
2023-02-20T07:37:21.929Z,362
2023-02-20T07:38:22.470Z,363
2023-02-20T07:39:22.105Z,361
2023-02-20T07:40:22.477Z,363
2023-02-20T07:41:22.165Z,360
2023-02-20T07:42:21.316Z,357
2023-02-20T07:43:21.882Z,361
2023-02-20T07:44:21.653Z,349
2023-02-20T07:46:21.385Z,346
2023-02-20T07:47:21.657Z,361
2023-02-20T07:48:21.981Z,364
2023-02-20T07:49:21.537Z,350
2023-02-20T07:50:22.084Z,347
2023-02-20T07:51:21.407Z,361
2023-02-20T07:52:24.595Z,360
2023-02-20T07:54:21.784Z,363
2023-02-20T07:55:21.695Z,360
2023-02-20T07:56:22.207Z,364
2023-02-20T07:57:21.213Z,359
2023-02-20T07:58:21.791Z,367
2023-02-20T07:59:21.370Z,364
2023-02-20T08:00:23.310Z,362
2023-02-20T08:01:22.205Z,368
2023-02-20T08:02:22.233Z,364
2023-02-20T08:03:21.462Z,357
2023-02-20T08:04:20.973Z,361
2023-02-20T08:05:22.539Z,363
2023-02-20T08:06:20.991Z,362
2023-02-20T08:07:21.494Z,356
2023-02-20T08:08:21.839Z,359
2023-02-20T08:09:21.832Z,354
2023-02-20T08:10:23.175Z,362
2023-02-20T08:11:21.645Z,363
2023-02-20T08:12:22.045Z,368
2023-02-20T08:13:22.009Z,360
2023-02-20T08:14:22.475Z,362
2023-02-20T08:15:21.899Z,369
2023-02-20T08:16:21.875Z,372
2023-02-20T08:17:20.902Z,371
2023-02-20T08:18:23.827Z,369
2023-02-20T08:19:35.502Z,363
2023-02-20T08:20:21.638Z,358
2023-02-20T08:21:21.496Z,350
2023-02-20T08:22:23.982Z,353
2023-02-20T08:23:21.454Z,357
2023-02-20T08:24:21.337Z,351
2023-02-20T08:25:21.690Z,355
2023-02-20T08:26:21.403Z,365
2023-02-20T08:27:21.525Z,359
2023-02-20T08:28:21.441Z,363
2023-02-20T08:29:21.364Z,357
2023-02-20T08:30:22.352Z,351
2023-02-20T08:31:40.948Z,355
2023-02-20T08:32:22.109Z,356
2023-02-20T08:33:21.828Z,367
2023-02-20T08:34:21.482Z,368
2023-02-20T08:35:22.135Z,364
2023-02-20T08:36:21.763Z,373
2023-02-20T08:37:20.630Z,357
2023-02-20T08:38:21.522Z,355
2023-02-20T08:40:21.636Z,357
2023-02-20T08:41:21.468Z,356
2023-02-20T08:42:20.688Z,365
2023-02-20T08:43:21.653Z,355
2023-02-20T08:44:21.987Z,357
2023-02-20T08:45:22.155Z,363
2023-02-20T08:46:21.046Z,351
2023-02-20T08:47:22.029Z,350
2023-02-20T08:49:22.933Z,354
2023-02-20T08:51:22.324Z,363
2023-02-20T08:52:21.484Z,357
2023-02-20T08:53:21.429Z,364
2023-02-20T08:54:21.326Z,362
2023-02-20T08:55:21.407Z,357
2023-02-20T08:56:21.838Z,359
2023-02-20T08:57:21.857Z,361
2023-02-20T08:58:22.800Z,362
2023-02-20T08:59:21.547Z,354
2023-02-20T09:01:22.385Z,349
2023-02-20T09:03:21.755Z,357
2023-02-20T09:04:21.595Z,355
2023-02-20T09:05:22.043Z,356
2023-02-20T09:06:21.985Z,359
2023-02-20T09:07:21.532Z,362
2023-02-20T09:09:22.259Z,355
2023-02-20T09:10:22.138Z,352
2023-02-20T09:11:21.504Z,356
2023-02-20T09:12:22.383Z,353
2023-02-20T09:13:21.990Z,357
2023-02-20T09:14:22.407Z,354
2023-02-20T09:15:22.037Z,362
2023-02-20T09:16:22.426Z,364
2023-02-20T09:17:22.341Z,361
2023-02-20T09:18:22.069Z,360
2023-02-20T09:19:21.153Z,346
2023-02-20T09:20:22.065Z,344
2023-02-20T09:22:21.795Z,350
2023-02-20T09:23:21.565Z,358
2023-02-20T09:24:22.516Z,361
2023-02-20T09:25:21.704Z,357
2023-02-20T09:26:21.315Z,368
2023-02-20T09:27:21.411Z,365
2023-02-20T09:28:21.621Z,362
2023-02-20T09:29:21.881Z,360
2023-02-20T09:30:22.201Z,351
2023-02-20T09:31:21.240Z,343
2023-02-20T09:32:21.794Z,364
2023-02-20T09:33:21.540Z,374
2023-02-20T09:34:22.043Z,367
2023-02-20T09:35:21.680Z,365
2023-02-20T09:36:21.716Z,357
2023-02-20T09:37:21.101Z,363
2023-02-20T09:38:21.890Z,368
2023-02-20T09:39:21.683Z,362
2023-02-20T09:40:22.535Z,353
2023-02-20T09:41:21.725Z,351
2023-02-20T09:42:21.616Z,353
2023-02-20T09:43:21.306Z,358
2023-02-20T09:44:21.624Z,372
2023-02-20T09:45:22.021Z,369
2023-02-20T09:46:21.443Z,356
2023-02-20T09:47:21.282Z,353
2023-02-20T09:48:20.967Z,360
2023-02-20T09:50:22.231Z,362
2023-02-20T09:51:21.580Z,369
2023-02-20T09:52:21.386Z,371
2023-02-20T09:53:21.095Z,378
2023-02-20T09:54:21.129Z,373
2023-02-20T09:55:21.603Z,371
2023-02-20T09:56:22.134Z,363
2023-02-20T09:57:21.813Z,355
2023-02-20T09:58:21.150Z,356
2023-02-20T09:59:20.561Z,355
2023-02-20T10:00:22.709Z,360
2023-02-20T10:01:22.330Z,364
2023-02-20T10:02:22.269Z,360
2023-02-20T10:03:21.464Z,364
2023-02-20T10:04:20.978Z,360
2023-02-20T10:05:21.586Z,346
2023-02-20T10:06:21.542Z,354
2023-02-20T10:08:21.310Z,348
2023-02-20T10:09:21.562Z,357
2023-02-20T10:10:21.301Z,364
2023-02-20T10:11:21.384Z,365
2023-02-20T10:12:21.443Z,358
2023-02-20T10:13:21.447Z,351
2023-02-20T10:16:21.534Z,352
2023-02-20T10:17:21.375Z,355
2023-02-20T10:18:21.926Z,352
2023-02-20T10:19:21.350Z,361
2023-02-20T10:20:21.989Z,366
2023-02-20T10:21:21.902Z,363
2023-02-20T10:22:21.558Z,358
2023-02-20T10:23:21.128Z,356
2023-02-20T10:24:21.693Z,363
2023-02-20T10:25:21.743Z,359
2023-02-20T10:26:21.825Z,348
2023-02-20T10:27:22.217Z,350
2023-02-20T10:28:21.772Z,352
2023-02-20T10:29:21.830Z,359
2023-02-20T10:30:21.896Z,352
2023-02-20T10:31:22.379Z,342
2023-02-20T10:32:20.991Z,345
2023-02-20T10:33:21.187Z,347
2023-02-20T10:34:21.451Z,346
2023-02-20T10:35:21.931Z,344
2023-02-20T10:36:21.291Z,341
2023-02-20T10:37:21.439Z,350
2023-02-20T10:38:21.060Z,353
2023-02-20T10:39:20.925Z,349
2023-02-20T10:40:21.121Z,344
2023-02-20T10:41:21.695Z,349
2023-02-20T10:43:21.725Z,347
2023-02-20T10:45:21.682Z,346
2023-02-20T10:46:21.026Z,352
2023-02-20T10:47:21.549Z,347
2023-02-20T10:48:35.306Z,344
2023-02-20T10:49:21.119Z,351
2023-02-20T10:50:20.803Z,352
2023-02-20T10:51:21.619Z,355
2023-02-20T10:52:33.860Z,352
2023-02-20T10:53:21.746Z,361
2023-02-20T10:54:21.459Z,352
2023-02-20T10:56:21.276Z,343
2023-02-20T10:57:21.792Z,349
2023-02-20T10:58:21.233Z,359
2023-02-20T10:59:20.831Z,358
2023-02-20T11:00:23.634Z,363
2023-02-20T11:01:22.551Z,359
2023-02-20T11:02:21.925Z,363
2023-02-20T11:03:22.054Z,360
2023-02-20T11:04:21.846Z,356
2023-02-20T11:06:22.684Z,361
2023-02-20T11:07:23.125Z,356
2023-02-20T11:08:21.957Z,345
2023-02-20T11:09:23.369Z,344
2023-02-20T11:10:21.944Z,338
2023-02-20T11:11:21.609Z,340
2023-02-20T11:12:21.678Z,351
2023-02-20T11:13:22.147Z,346
2023-02-20T11:14:25.486Z,356
2023-02-20T11:15:21.207Z,346
2023-02-20T11:16:23.232Z,344
2023-02-20T11:17:23.066Z,348
2023-02-20T11:18:21.721Z,351
2023-02-20T11:19:21.808Z,356
2023-02-20T11:20:22.191Z,354
2023-02-20T11:21:21.346Z,346
2023-02-20T11:22:21.048Z,351
2023-02-20T11:23:21.498Z,357
2023-02-20T11:24:21.414Z,360
2023-02-20T11:25:21.732Z,370
2023-02-20T11:26:21.654Z,364
2023-02-20T11:27:21.543Z,357
2023-02-20T11:28:22.275Z,345
2023-02-20T11:29:21.021Z,346
2023-02-20T11:30:22.733Z,348
2023-02-20T11:31:21.791Z,345
2023-02-20T11:32:21.683Z,347
2023-02-20T11:34:22.087Z,353
2023-02-20T11:35:21.523Z,348
2023-02-20T11:37:21.823Z,358
2023-02-20T11:38:21.425Z,350
2023-02-20T11:40:22.093Z,353
2023-02-20T11:41:21.685Z,341
2023-02-20T11:42:22.935Z,346
2023-02-20T11:43:22.017Z,349
2023-02-20T11:44:22.472Z,357
2023-02-20T11:45:22.294Z,354
2023-02-20T11:46:21.908Z,355
2023-02-20T11:47:21.747Z,359
2023-02-20T11:48:21.654Z,350
2023-02-20T11:49:21.936Z,344
2023-02-20T11:50:22.204Z,350
2023-02-20T11:51:21.338Z,356
2023-02-20T11:52:22.636Z,353
2023-02-20T11:54:21.764Z,346
2023-02-20T11:55:22.901Z,342
2023-02-20T11:56:22.041Z,351
2023-02-20T11:57:21.537Z,346
2023-02-20T11:58:21.464Z,348
2023-02-20T11:59:22.381Z,343
2023-02-20T12:00:22.439Z,341
2023-02-20T12:01:22.972Z,343
2023-02-20T12:02:22.068Z,356
2023-02-20T12:04:22.143Z,352
2023-02-20T12:05:22.050Z,347
2023-02-20T12:07:22.092Z,353
2023-02-20T12:08:22.306Z,354
2023-02-20T12:09:21.842Z,352
2023-02-20T12:10:22.228Z,346
2023-02-20T12:11:21.288Z,353
2023-02-20T12:12:21.985Z,355
2023-02-20T12:13:22.433Z,351
2023-02-20T12:14:21.230Z,349
2023-02-20T12:16:21.925Z,351
2023-02-20T12:17:23.954Z,339
2023-02-20T12:18:22.411Z,338
2023-02-20T12:19:21.679Z,341
2023-02-20T12:20:22.095Z,338
2023-02-20T12:21:22.043Z,346
2023-02-20T12:22:21.841Z,340
2023-02-20T12:23:22.555Z,347
2023-02-20T12:24:22.269Z,356
2023-02-20T12:25:21.827Z,342
2023-02-20T12:26:22.421Z,353
2023-02-20T12:27:22.800Z,351
2023-02-20T12:28:21.846Z,358
2023-02-20T12:29:21.383Z,354
2023-02-20T12:31:22.300Z,351
2023-02-20T12:33:22.367Z,337
2023-02-20T12:34:22.106Z,342
2023-02-20T12:35:22.019Z,336
2023-02-20T12:36:21.542Z,342
2023-02-20T12:37:21.548Z,358
2023-02-20T12:38:21.956Z,354
2023-02-20T12:39:21.722Z,351
2023-02-20T12:40:21.920Z,349
2023-02-20T12:41:21.463Z,347
2023-02-20T12:43:21.037Z,339
2023-02-20T12:44:21.405Z,341
2023-02-20T12:45:26.717Z,345
2023-02-20T12:46:21.939Z,347
2023-02-20T12:47:21.696Z,341
2023-02-20T12:48:21.230Z,338
2023-02-20T12:49:26.082Z,333
2023-02-20T12:50:21.973Z,343
2023-02-20T12:51:26.900Z,341
2023-02-20T12:52:21.342Z,327
2023-02-20T12:53:21.473Z,324
2023-02-20T12:54:21.743Z,338
2023-02-20T12:55:29.494Z,343
2023-02-20T12:56:21.222Z,340
2023-02-20T12:58:21.746Z,338
2023-02-20T12:59:21.501Z,327
2023-02-20T13:00:22.855Z,338
2023-02-20T13:01:34.287Z,343
2023-02-20T13:02:32.540Z,339
2023-02-20T13:03:21.522Z,326
2023-02-20T13:04:21.854Z,339
2023-02-20T13:05:22.041Z,334
2023-02-20T13:06:21.958Z,332
2023-02-20T13:07:21.703Z,329
2023-02-20T13:08:22.413Z,337
2023-02-20T13:09:22.184Z,343
2023-02-20T13:10:21.599Z,342
2023-02-20T13:12:21.468Z,333
2023-02-20T13:13:21.789Z,343
2023-02-20T13:14:21.103Z,346
2023-02-20T13:15:24.049Z,337
2023-02-20T13:16:22.040Z,338
2023-02-20T13:17:21.040Z,343
2023-02-20T13:18:21.621Z,337
2023-02-20T13:19:21.485Z,335
2023-02-20T13:20:21.802Z,332
2023-02-20T13:22:21.092Z,331
2023-02-20T13:23:21.805Z,337
2023-02-20T13:24:21.474Z,335
2023-02-20T13:25:21.508Z,326
2023-02-20T13:26:21.483Z,328
2023-02-20T13:28:21.229Z,332
2023-02-20T13:29:23.210Z,336
2023-02-20T13:30:21.839Z,325
2023-02-20T13:31:44.002Z,338
2023-02-20T13:33:43.997Z,343
2023-02-20T13:34:21.897Z,341
2023-02-20T13:35:21.698Z,339
2023-02-20T13:36:21.735Z,340
2023-02-20T13:37:21.320Z,349
2023-02-20T13:38:21.354Z,342
2023-02-20T13:39:21.560Z,327
2023-02-20T13:40:21.761Z,328
2023-02-20T13:41:22.126Z,335
2023-02-20T13:42:21.484Z,340
2023-02-20T13:43:21.681Z,328
2023-02-20T13:44:22.873Z,326
2023-02-20T13:45:21.690Z,334
2023-02-20T13:47:27.411Z,334
2023-02-20T13:48:21.851Z,345
2023-02-20T13:49:21.188Z,347
2023-02-20T13:50:22.093Z,340
2023-02-20T13:51:21.789Z,344
2023-02-20T13:52:21.317Z,334
2023-02-20T13:53:22.465Z,339
2023-02-20T13:54:21.865Z,334
2023-02-20T13:55:21.638Z,337
2023-02-20T13:56:22.257Z,332
2023-02-20T13:58:23.206Z,330
2023-02-20T13:59:21.932Z,333
2023-02-20T14:00:22.498Z,346
2023-02-20T14:01:23.218Z,334
2023-02-20T14:02:21.600Z,335
2023-02-20T14:03:21.836Z,324
2023-02-20T14:04:21.919Z,331
2023-02-20T14:05:22.114Z,334
2023-02-20T14:07:21.563Z,347
2023-02-20T14:08:22.129Z,341
2023-02-20T14:09:21.571Z,339
2023-02-20T14:10:21.705Z,329
2023-02-20T14:11:22.237Z,323
2023-02-20T14:12:21.595Z,334
2023-02-20T14:14:21.829Z,330
2023-02-20T14:15:24.688Z,335
2023-02-20T14:16:22.060Z,334
2023-02-20T14:18:22.307Z,330
2023-02-20T14:19:21.506Z,323
2023-02-20T14:20:22.429Z,322
2023-02-20T14:22:22.605Z,324
2023-02-20T14:23:21.888Z,331
2023-02-20T14:24:22.403Z,340
2023-02-20T14:25:21.688Z,343
2023-02-20T14:26:21.769Z,338
2023-02-20T14:27:21.247Z,335
2023-02-20T14:28:20.438Z,339
2023-02-20T14:29:21.793Z,341
2023-02-20T14:30:21.913Z,336
2023-02-20T14:32:21.887Z,333
2023-02-20T14:33:21.681Z,337
2023-02-20T14:34:21.400Z,328
2023-02-20T14:35:21.864Z,333
2023-02-20T14:36:21.725Z,327
2023-02-20T14:38:22.401Z,329
2023-02-20T14:39:21.062Z,324
2023-02-20T14:40:22.372Z,330
2023-02-20T14:42:24.275Z,334
2023-02-20T14:43:22.111Z,335
2023-02-20T14:44:21.520Z,339
2023-02-20T14:45:22.174Z,336
2023-02-20T14:46:22.498Z,341
2023-02-20T14:47:22.027Z,340
2023-02-20T14:48:21.740Z,341
2023-02-20T14:50:22.348Z,339
2023-02-20T14:51:21.867Z,333
2023-02-20T14:52:22.264Z,339
2023-02-20T14:53:21.778Z,343
2023-02-20T14:54:22.281Z,335
2023-02-20T14:55:21.695Z,336
2023-02-20T14:56:22.298Z,341
2023-02-20T14:57:21.319Z,348
2023-02-20T14:58:21.691Z,346
2023-02-20T14:59:21.760Z,334
2023-02-20T15:00:22.946Z,336
2023-02-20T15:01:22.579Z,346
2023-02-20T15:03:30.251Z,333
2023-02-20T15:04:22.393Z,340
2023-02-20T15:05:23.428Z,341
2023-02-20T15:06:22.039Z,340
2023-02-20T15:07:22.397Z,345
2023-02-20T15:08:22.423Z,336